Meteo Giornale » Osservazioni meteo Stati Uniti (USA) » False Pass
ore: 08:56 - Osservazioni Meteo False Pass
Lat. 54° 51' N Lon. 163° 25' W Alt. 6 metri s.l.m.
17 °C
Pioggia
Temp. 24 Ore
9 °C
21 °C
Ovest
25.9 Km/h
Dew point 14 °C
Umidità 82 %
Visibilità 2 Km
Il sole sorge alle ore 07:59
Il sole tramonta alle ore 21:48
| Data e Ora | Cielo e Fenomeni | T °C | DP °C | Um. % | Pres. hPa | Vis. km | Vento km/h | |
|---|---|---|---|---|---|---|---|---|
| Oggi h: 08:56 | Pioggia | 17 | 14 | 82 | 1014 | 2 | O 25.9 | |
| Oggi h: 07:56 | Pioggia | 19 | 17 | 88 | 1014 | 5 | O/NO 35.2 | |
| Oggi h: 07:45 | Pioggia | 21 | 17 | 77 | 1014 | 2 | O/SO 29.6 | |
| Oggi h: 06:56 | Coperto | 19 | 16 | 82 | 1015 | 10 | NO 14.8 | |
| Oggi h: 05:56 | Molto Nuvoloso | 18 | 15 | 82 | 1016 | 10 | SE 14.8 | |
| Oggi h: 04:56 | Poco Nuvoloso | 15 | 14 | 93 | 1017 | 10 | N 5.5 | |
| Oggi h: 03:56 | Sereno | 17 | 15 | 88 | 1018 | 10 | N 5.5 | |
| Oggi h: 02:56 | Poco Nuvoloso | 21 | 16 | 73 | 1019 | 10 | O/SO 22.2 | |
| Oggi h: 02:38 | Nuvoloso | 21 | 16 | 73 | 1019 | 10 | O 22.2 | |
| Oggi h: 02:26 | Molto Nuvoloso | 20 | 16 | 77 | 1019 | 10 | O 22.2 | |
| Oggi h: 01:56 | Poco Nuvoloso | 20 | 16 | 77 | 1020 | 10 | O 16.7 | |
| Oggi h: 01:35 | Molto Nuvoloso | 19 | 16 | 82 | 1020 | 10 | O/SO 16.7 | |
| Oggi h: 01:22 | Coperto | 19 | 16 | 82 | 1020 | 14 | O 18.5 | |
| Oggi h: 00:56 | Coperto | 19 | 16 | 82 | 1021 | 11 | O 25.9 | |
| Oggi h: 00:44 | Molto Nuvoloso | 19 | 16 | 82 | 1021 | 10 | O/SO 22.2 | |
| Ieri h: 23:56 | Coperto | 18 | 16 | 88 | 1021 | 11 | O 25.9 | |
| Ieri h: 23:32 | Foschia | 19 | 16 | 82 | 1021 | 10 | O/NO 35.2 | |
| Ieri h: 22:56 | Coperto | 19 | 16 | 82 | 1020 | 11 | O/NO 46.3 | |
| Ieri h: 22:38 | Foschia | 19 | 16 | 82 | 1020 | 8 | O/NO 40.7 | |
| Ieri h: 22:09 | Pioggia Foschia | 19 | 17 | 88 | 1020 | 5 | O 46.3 | |
| Ieri h: 21:56 | Pioggia | 19 | 16 | 82 | 1020 | 3 | O/NO 48.1 | |
| Ieri h: 21:37 | Foschia | 19 | 16 | 82 | 1020 | 3 | O/NO 48.1 | |
| Ieri h: 21:27 | Pioggia | 19 | 16 | 82 | 1020 | 5 | O/NO 51.8 | |
| Ieri h: 21:20 | Pioggia | 19 | 16 | 82 | 1020 | 3 | O/NO 42.6 | |
| Ieri h: 21:10 | Foschia | 19 | 16 | 82 | 1020 | 5 | O/NO 38.8 | |
| Ieri h: 20:56 | Pioggia Foschia | 19 | 17 | 88 | 1020 | 3 | O/NO 48.1 | |
| Ieri h: 20:46 | Pioggia Foschia | 19 | 17 | 88 | 1021 | 5 | O/NO 38.8 | |
| Ieri h: 19:56 | Pioggia Foschia | 19 | 17 | 88 | 1021 | 3 | O 33.3 | |
| Ieri h: 19:41 | Pioggia Foschia | 18 | 17 | 93 | 1021 | 5 | O 27.8 | |
| Ieri h: 19:31 | Pioggia Foschia | 19 | 17 | 88 | 1021 | 3 | O 31.5 | |
| Ieri h: 18:56 | Pioggia Foschia | 19 | 18 | 93 | 1021 | 2 | O/NO 22.2 | |
| Ieri h: 17:56 | Pioggia Foschia | 19 | 18 | 93 | 1022 | 2 | O/NO 24 | |
| Ieri h: 17:44 | Pioggia | 20 | 17 | 82 | 1022 | 5 | O/NO 31.5 | |
| Ieri h: 16:56 | Foschia | 21 | 17 | 77 | 1022 | 5 | O 24 | |
| Ieri h: 15:56 | Coperto | 14 | 12 | 87 | 1022 | 10 | E/SE 35.2 | |
| Ieri h: 14:56 | Pioggia | 13 | 12 | 93 | 1023 | 10 | E/SE 29.6 | |
| Ieri h: 13:56 | Coperto | 12 | 11 | 93 | 1024 | 10 | SE 18.5 | |
| Ieri h: 13:23 | Pioggia Foschia | 11 | 11 | 100 | 1025 | 6 | S/SE 13 | |
| Ieri h: 13:13 | Pioggia Foschia | 11 | 10 | 93 | 1025 | 3 | SE 14.8 | |
| Ieri h: 12:56 | Coperto | 11 | 10 | 93 | 1025 | 14 | N 11.1 | |
| Ieri h: 12:41 | Pioggia | 11 | 9 | 87 | 1025 | 14 | SE 11.1 | |
| Ieri h: 11:56 | Coperto | 11 | 9 | 87 | 1026 | 10 | SE 11.1 | |
| Ieri h: 10:56 | Coperto | 10 | 8 | 87 | 1026 | 10 | SE 9.3 | |
| Ieri h: 09:56 | Coperto | 9 | 8 | 93 | 1027 | 10 | N 0 | |



